sensor_id;sensor_type;location;lat;lon;timestamp;pressure;altitude;pressure_sealevel;temperature;humidity
72689;BME280;61053;52.166;4.506;2023-10-19T00:00:35;99122.28;;;11.64;100.00
72689;BME280;61053;52.166;4.506;2023-10-19T00:03:02;99126.41;;;11.58;100.00
72689;BME280;61053;52.166;4.506;2023-10-19T00:05:31;99116.88;;;11.56;100.00
72689;BME280;61053;52.166;4.506;2023-10-19T00:07:58;99122.91;;;11.58;100.00
72689;BME280;61053;52.166;4.506;2023-10-19T00:10:26;99120.94;;;11.68;100.00
72689;BME280;61053;52.166;4.506;2023-10-19T00:13:07;99122.28;;;11.64;100.00
72689;BME280;61053;52.166;4.506;2023-10-19T00:15:55;99107.88;;;11.57;100.00
72689;BME280;61053;52.166;4.506;2023-10-19T00:18:22;99123.94;;;11.65;100.00
72689;BME280;61053;52.166;4.506;2023-10-19T00:20:52;99118.09;;;11.61;100.00
72689;BME280;61053;52.166;4.506;2023-10-19T00:23:21;99110.09;;;11.70;100.00
72689;BME280;61053;52.166;4.506;2023-10-19T00:26:02;99106.84;;;11.58;100.00
72689;BME280;61053;52.166;4.506;2023-10-19T00:28:36;99114.09;;;11.66;100.00
72689;BME280;61053;52.166;4.506;2023-10-19T00:31:03;99117.88;;;11.81;100.00
72689;BME280;61053;52.166;4.506;2023-10-19T00:33:35;99112.97;;;11.94;100.00
72689;BME280;61053;52.166;4.506;2023-10-19T00:36:09;99114.34;;;11.80;100.00
72689;BME280;61053;52.166;4.506;2023-10-19T00:38:42;99104.81;;;11.78;100.00
72689;BME280;61053;52.166;4.506;2023-10-19T00:41:14;99109.75;;;11.91;100.00
72689;BME280;61053;52.166;4.506;2023-10-19T00:43:46;99107.78;;;12.01;100.00
72689;BME280;61053;52.166;4.506;2023-10-19T00:46:15;99093.78;;;12.07;100.00
72689;BME280;61053;52.166;4.506;2023-10-19T00:48:50;99092.78;;;12.08;100.00
72689;BME280;61053;52.166;4.506;2023-10-19T00:51:22;99095.28;;;12.10;100.00
72689;BME280;61053;52.166;4.506;2023-10-19T00:53:58;99098.78;;;12.02;100.00
72689;BME280;61053;52.166;4.506;2023-10-19T00:56:25;99098.56;;;11.95;100.00
72689;BME280;61053;52.166;4.506;2023-10-19T00:58:59;99101.28;;;12.03;100.00
72689;BME280;61053;52.166;4.506;2023-10-19T01:01:41;99089.44;;;12.06;100.00
72689;BME280;61053;52.166;4.506;2023-10-19T01:04:15;99085.41;;;12.10;100.00
72689;BME280;61053;52.166;4.506;2023-10-19T01:06:47;99086.44;;;12.09;100.00
72689;BME280;61053;52.166;4.506;2023-10-19T01:09:28;99087.50;;;12.24;100.00
72689;BME280;61053;52.166;4.506;2023-10-19T01:11:54;99087.16;;;12.36;100.00
72689;BME280;61053;52.166;4.506;2023-10-19T01:14:20;99088.00;;;12.28;100.00
72689;BME280;61053;52.166;4.506;2023-10-19T01:16:48;99099.19;;;12.23;100.00
72689;BME280;61053;52.166;4.506;2023-10-19T01:19:22;99098.69;;;12.28;100.00
72689;BME280;61053;52.166;4.506;2023-10-19T01:21:48;99102.69;;;12.24;100.00
72689;BME280;61053;52.166;4.506;2023-10-19T01:24:24;99093.00;;;12.31;100.00
72689;BME280;61053;52.166;4.506;2023-10-19T01:27:12;99105.59;;;12.39;100.00
72689;BME280;61053;52.166;4.506;2023-10-19T01:29:39;99102.06;;;12.30;100.00
72689;BME280;61053;52.166;4.506;2023-10-19T01:32:04;99099.44;;;12.46;100.00
72689;BME280;61053;52.166;4.506;2023-10-19T01:34:33;99098.22;;;12.33;100.00
72689;BME280;61053;52.166;4.506;2023-10-19T01:37:01;99106.09;;;12.42;100.00
72689;BME280;61053;52.166;4.506;2023-10-19T01:39:33;99091.88;;;12.42;100.00
72689;BME280;61053;52.166;4.506;2023-10-19T01:42:02;99091.56;;;12.45;100.00
72689;BME280;61053;52.166;4.506;2023-10-19T01:44:30;99098.13;;;12.59;100.00
72689;BME280;61053;52.166;4.506;2023-10-19T01:46:57;99082.22;;;12.65;100.00
72689;BME280;61053;52.166;4.506;2023-10-19T01:49:30;99082.38;;;12.64;100.00
72689;BME280;61053;52.166;4.506;2023-10-19T01:51:56;99082.53;;;12.54;100.00
72689;BME280;61053;52.166;4.506;2023-10-19T01:54:24;99086.41;;;12.68;100.00
72689;BME280;61053;52.166;4.506;2023-10-19T01:56:55;99073.50;;;12.63;100.00
72689;BME280;61053;52.166;4.506;2023-10-19T01:59:26;99069.00;;;12.72;100.00
72689;BME280;61053;52.166;4.506;2023-10-19T02:01:57;99072.19;;;12.67;100.00
72689;BME280;61053;52.166;4.506;2023-10-19T02:04:24;99075.72;;;12.76;100.00
72689;BME280;61053;52.166;4.506;2023-10-19T02:06:50;99074.72;;;12.69;100.00
72689;BME280;61053;52.166;4.506;2023-10-19T02:09:31;99079.88;;;12.71;100.00
72689;BME280;61053;52.166;4.506;2023-10-19T02:11:58;99072.03;;;12.77;100.00
72689;BME280;61053;52.166;4.506;2023-10-19T02:14:27;99078.75;;;12.81;100.00
72689;BME280;61053;52.166;4.506;2023-10-19T02:23:37;99068.50;;;13.18;100.00
72689;BME280;61053;52.166;4.506;2023-10-19T02:26:12;99076.91;;;13.23;100.00
72689;BME280;61053;52.166;4.506;2023-10-19T02:28:50;99072.22;;;13.17;100.00
72689;BME280;61053;52.166;4.506;2023-10-19T02:31:25;99066.69;;;13.35;100.00
72689;BME280;61053;52.166;4.506;2023-10-19T02:33:57;99061.63;;;13.56;100.00
72689;BME280;61053;52.166;4.506;2023-10-19T02:36:30;99067.31;;;13.53;100.00
72689;BME280;61053;52.166;4.506;2023-10-19T02:39:06;99057.44;;;13.54;100.00
72689;BME280;61053;52.166;4.506;2023-10-19T02:41:39;99059.63;;;13.50;100.00
72689;BME280;61053;52.166;4.506;2023-10-19T02:46:49;99050.38;;;13.61;100.00
72689;BME280;61053;52.166;4.506;2023-10-19T02:49:21;99050.38;;;13.61;100.00
72689;BME280;61053;52.166;4.506;2023-10-19T02:51:49;99048.31;;;13.71;100.00
72689;BME280;61053;52.166;4.506;2023-10-19T02:54:19;99051.38;;;13.60;100.00
72689;BME280;61053;52.166;4.506;2023-10-19T02:56:47;99049.34;;;13.70;100.00
72689;BME280;61053;52.166;4.506;2023-10-19T02:59:43;99046.31;;;13.73;100.00
72689;BME280;61053;52.166;4.506;2023-10-19T03:02:24;99047.50;;;13.62;100.00
72689;BME280;61053;52.166;4.506;2023-10-19T03:04:53;99041.09;;;13.71;100.00
72689;BME280;61053;52.166;4.506;2023-10-19T03:07:24;99045.34;;;13.66;100.00
72689;BME280;61053;52.166;4.506;2023-10-19T03:10:06;99046.31;;;13.73;100.00
72689;BME280;61053;52.166;4.506;2023-10-19T03:12:40;99042.28;;;13.77;100.00
72689;BME280;61053;52.166;4.506;2023-10-19T03:15:07;99041.91;;;13.88;100.00
72689;BME280;61053;52.166;4.506;2023-10-19T03:17:38;99047.75;;;13.92;100.00
72689;BME280;61053;52.166;4.506;2023-10-19T03:20:08;99046.56;;;13.94;100.00
72689;BME280;61053;52.166;4.506;2023-10-19T03:22:38;99039.75;;;13.84;100.00
72689;BME280;61053;52.166;4.506;2023-10-19T03:25:10;99049.47;;;13.85;100.00
72689;BME280;61053;52.166;4.506;2023-10-19T03:27:55;99037.75;;;13.69;100.00
72689;BME280;61053;52.166;4.506;2023-10-19T03:30:27;99035.47;;;13.50;100.00
72689;BME280;61053;52.166;4.506;2023-10-19T03:32:54;99042.19;;;13.54;100.00
72689;BME280;61053;52.166;4.506;2023-10-19T03:35:21;99028.13;;;13.36;100.00
72689;BME280;61053;52.166;4.506;2023-10-19T03:37:52;99030.13;;;13.50;100.00
72689;BME280;61053;52.166;4.506;2023-10-19T03:40:17;99027.31;;;13.35;100.00
72689;BME280;61053;52.166;4.506;2023-10-19T03:42:55;99032.47;;;13.45;100.00
72689;BME280;61053;52.166;4.506;2023-10-19T03:45:22;99034.16;;;13.38;100.00
72689;BME280;61053;52.166;4.506;2023-10-19T03:47:51;99035.16;;;13.37;100.00
72689;BME280;61053;52.166;4.506;2023-10-19T03:50:22;99032.16;;;13.32;100.00
72689;BME280;61053;52.166;4.506;2023-10-19T03:53:00;99037.16;;;13.43;100.00
72689;BME280;61053;52.166;4.506;2023-10-19T03:55:39;99037.72;;;13.30;100.00
72689;BME280;61053;52.166;4.506;2023-10-19T03:58:10;99032.16;;;13.40;100.00
72689;BME280;61053;52.166;4.506;2023-10-19T04:00:47;99034.66;;;13.41;100.00
72689;BME280;61053;52.166;4.506;2023-10-19T04:03:15;99029.44;;;13.48;100.00
72689;BME280;61053;52.166;4.506;2023-10-19T04:05:40;99031.81;;;13.51;100.00
72689;BME280;61053;52.166;4.506;2023-10-19T04:08:10;99023.81;;;13.35;100.00
72689;BME280;61053;52.166;4.506;2023-10-19T04:10:42;99031.44;;;13.54;100.00
72689;BME280;61053;52.166;4.506;2023-10-19T04:13:34;99034.81;;;13.48;100.00
72689;BME280;61053;52.166;4.506;2023-10-19T04:16:05;99033.63;;;13.50;100.00
72689;BME280;61053;52.166;4.506;2023-10-19T04:18:34;99025.78;;;13.49;100.00
72689;BME280;61053;52.166;4.506;2023-10-19T04:21:04;99037.69;;;13.46;100.00
72689;BME280;61053;52.166;4.506;2023-10-19T04:23:30;99030.97;;;13.42;100.00
72689;BME280;61053;52.166;4.506;2023-10-19T04:26:03;99039.19;;;13.41;100.00
72689;BME280;61053;52.166;4.506;2023-10-19T04:28:41;99037.69;;;13.46;100.00
72689;BME280;61053;52.166;4.506;2023-10-19T04:31:17;99033.50;;;13.44;100.00
72689;BME280;61053;52.166;4.506;2023-10-19T04:33:51;99035.16;;;13.45;100.00
72689;BME280;61053;52.166;4.506;2023-10-19T04:36:38;99035.63;;;13.57;100.00
72689;BME280;61053;52.166;4.506;2023-10-19T04:39:07;99030.63;;;13.54;100.00
72689;BME280;61053;52.166;4.506;2023-10-19T04:41:37;99026.38;;;13.67;100.00
72689;BME280;61053;52.166;4.506;2023-10-19T04:44:07;99031.56;;;13.69;100.00
72689;BME280;61053;52.166;4.506;2023-10-19T04:46:43;99032.59;;;13.60;100.00
72689;BME280;61053;52.166;4.506;2023-10-19T04:49:14;99040.47;;;13.61;100.00
72689;BME280;61053;52.166;4.506;2023-10-19T04:51:43;99033.13;;;13.55;100.00
72689;BME280;61053;52.166;4.506;2023-10-19T04:54:12;99032.63;;;13.51;100.00
72689;BME280;61053;52.166;4.506;2023-10-19T04:56:41;99038.97;;;13.59;100.00
72689;BME280;61053;52.166;4.506;2023-10-19T04:59:07;99039.97;;;13.66;100.00
72689;BME280;61053;52.166;4.506;2023-10-19T05:01:37;99043.69;;;13.57;100.00
72689;BME280;61053;52.166;4.506;2023-10-19T05:04:11;99045.19;;;13.59;100.00
72689;BME280;61053;52.166;4.506;2023-10-19T05:06:39;99050.38;;;13.61;100.00
72689;BME280;61053;52.166;4.506;2023-10-19T05:09:06;99046.72;;;13.54;100.00
72689;BME280;61053;52.166;4.506;2023-10-19T05:11:34;99057.25;;;13.63;100.00
72689;BME280;61053;52.166;4.506;2023-10-19T05:14:00;99050.38;;;13.61;100.00
72689;BME280;61053;52.166;4.506;2023-10-19T05:16:56;99053.53;;;13.72;100.00
72689;BME280;61053;52.166;4.506;2023-10-19T05:19:46;99054.72;;;13.62;100.00
72689;BME280;61053;52.166;4.506;2023-10-19T05:28:52;99050.13;;;13.79;100.00
72689;BME280;61053;52.166;4.506;2023-10-19T05:31:17;99055.34;;;13.80;100.00
72689;BME280;61053;52.166;4.506;2023-10-19T05:34:04;99056.72;;;13.68;100.00
72689;BME280;61053;52.166;4.506;2023-10-19T05:36:31;99061.06;;;13.77;100.00
72689;BME280;61053;52.166;4.506;2023-10-19T05:42:41;99048.84;;;13.75;100.00
72689;BME280;61053;52.166;4.506;2023-10-19T05:45:42;99056.72;;;13.68;100.00
72689;BME280;61053;52.166;4.506;2023-10-19T05:48:32;99048.69;;;13.68;100.00
72689;BME280;61053;52.166;4.506;2023-10-19T05:54:10;99052.66;;;13.80;100.00
72689;BME280;61053;52.166;4.506;2023-10-19T05:56:57;99050.13;;;13.79;100.00
72689;BME280;61053;52.166;4.506;2023-10-19T05:59:29;99046.31;;;13.65;100.00
72689;BME280;61053;52.166;4.506;2023-10-19T06:02:10;99044.81;;;13.62;100.00
72689;BME280;61053;52.166;4.506;2023-10-19T06:04:57;99045.66;;;13.71;100.00
72689;BME280;61053;52.166;4.506;2023-10-19T06:07:23;99048.47;;;13.78;100.00
72689;BME280;61053;52.166;4.506;2023-10-19T06:10:02;99058.03;;;13.80;100.00
72689;BME280;61053;52.166;4.506;2023-10-19T06:12:32;99063.59;;;13.70;100.00
72689;BME280;61053;52.166;4.506;2023-10-19T06:15:00;99064.94;;;13.75;100.00
72689;BME280;61053;52.166;4.506;2023-10-19T06:17:26;99063.38;;;13.88;100.00
72689;BME280;61053;52.166;4.506;2023-10-19T06:19:52;99076.78;;;13.88;100.00
72689;BME280;61053;52.166;4.506;2023-10-19T06:22:21;99062.91;;;13.77;100.00
72689;BME280;61053;52.166;4.506;2023-10-19T06:24:47;99076.78;;;13.88;100.00
72689;BME280;61053;52.166;4.506;2023-10-19T06:27:12;99080.94;;;13.99;100.00
72689;BME280;61053;52.166;4.506;2023-10-19T06:29:38;99081.28;;;13.96;100.00
72689;BME280;61053;52.166;4.506;2023-10-19T06:32:09;99078.69;;;14.19;100.00
72689;BME280;61053;52.166;4.506;2023-10-19T06:34:43;99065.66;;;14.70;100.00
72689;BME280;61053;52.166;4.506;2023-10-19T06:37:24;99075.25;;;14.65;100.00
72689;BME280;61053;52.166;4.506;2023-10-19T06:39:51;99074.09;;;14.28;100.00
72689;BME280;61053;52.166;4.506;2023-10-19T06:42:37;99068.78;;;14.11;100.00
72689;BME280;61053;52.166;4.506;2023-10-19T06:45:20;99080.19;;;14.22;100.00
72689;BME280;61053;52.166;4.506;2023-10-19T06:47:59;99087.06;;;14.16;100.00
72689;BME280;61053;52.166;4.506;2023-10-19T06:50:38;99086.75;;;14.19;100.00
72689;BME280;61053;52.166;4.506;2023-10-19T06:53:08;99086.69;;;14.27;100.00
72689;BME280;61053;52.166;4.506;2023-10-19T06:55:45;99084.13;;;14.34;100.00
72689;BME280;61053;52.166;4.506;2023-10-19T06:58:29;99096.94;;;14.24;100.00
72689;BME280;61053;52.166;4.506;2023-10-19T07:00:54;99087.25;;;14.14;100.00
72689;BME280;61053;52.166;4.506;2023-10-19T07:03:30;99092.56;;;14.23;100.00
72689;BME280;61053;52.166;4.506;2023-10-19T07:05:56;99086.75;;;14.19;100.00
72689;BME280;61053;52.166;4.506;2023-10-19T07:08:22;99093.41;;;14.23;100.00
72689;BME280;61053;52.166;4.506;2023-10-19T07:11:23;99099.13;;;14.28;100.00
72689;BME280;61053;52.166;4.506;2023-10-19T07:13:49;99097.81;;;14.16;100.00
72689;BME280;61053;52.166;4.506;2023-10-19T07:16:14;99096.81;;;14.17;100.00
72689;BME280;61053;52.166;4.506;2023-10-19T07:18:40;99099.13;;;14.28;100.00
72689;BME280;61053;52.166;4.506;2023-10-19T07:21:12;99097.63;;;14.26;100.00
72689;BME280;61053;52.166;4.506;2023-10-19T07:40:31;99115.44;;;14.50;100.00
72689;BME280;61053;52.166;4.506;2023-10-19T07:45:37;99110.75;;;14.52;100.00
72689;BME280;61053;52.166;4.506;2023-10-19T07:53:46;99122.47;;;14.51;100.00
72689;BME280;61053;52.166;4.506;2023-10-19T07:56:11;99128.19;;;14.56;100.00
72689;BME280;61053;52.166;4.506;2023-10-19T07:58:37;99124.66;;;14.64;100.00
72689;BME280;61053;52.166;4.506;2023-10-19T08:03:32;99121.22;;;14.70;100.00
72689;BME280;61053;52.166;4.506;2023-10-19T08:06:22;99108.94;;;14.75;100.00
72689;BME280;61053;52.166;4.506;2023-10-19T08:18:46;99105.28;;;15.14;100.00
72689;BME280;61053;52.166;4.506;2023-10-19T08:29:23;99113.59;;;15.28;100.00
72689;BME280;61053;52.166;4.506;2023-10-19T08:37:13;99099.34;;;15.42;100.00
72689;BME280;61053;52.166;4.506;2023-10-19T08:47:20;99100.63;;;15.31;100.00
72689;BME280;61053;52.166;4.506;2023-10-19T08:53:19;99100.31;;;15.64;100.00
72689;BME280;61053;52.166;4.506;2023-10-19T08:58:42;99083.53;;;15.62;100.00
72689;BME280;61053;52.166;4.506;2023-10-19T09:06:14;99091.25;;;16.61;100.00
72689;BME280;61053;52.166;4.506;2023-10-19T09:13:51;99090.09;;;16.34;100.00
72689;BME280;61053;52.166;4.506;2023-10-19T09:16:24;99096.25;;;16.28;100.00
72689;BME280;61053;52.166;4.506;2023-10-19T09:26:26;99089.03;;;16.50;100.00
72689;BME280;61053;52.166;4.506;2023-10-19T09:29:17;99076.16;;;16.66;100.00
72689;BME280;61053;52.166;4.506;2023-10-19T09:38:10;99073.69;;;16.50;100.00
72689;BME280;61053;52.166;4.506;2023-10-19T10:13:45;99068.97;;;16.52;100.00
72689;BME280;61053;52.166;4.506;2023-10-19T10:16:29;99072.78;;;16.58;100.00
72689;BME280;61053;52.166;4.506;2023-10-19T10:24:21;99076.53;;;16.27;100.00
72689;BME280;61053;52.166;4.506;2023-10-19T10:27:09;99067.63;;;16.41;100.00
72689;BME280;61053;52.166;4.506;2023-10-19T10:30:00;99052.34;;;16.49;100.00
72689;BME280;61053;52.166;4.506;2023-10-19T10:37:38;99037.31;;;17.54;99.00
72689;BME280;61053;52.166;4.506;2023-10-19T10:45:21;99067.88;;;18.37;93.28
72689;BME280;61053;52.166;4.506;2023-10-19T10:47:48;99055.59;;;19.69;89.08
72689;BME280;61053;52.166;4.506;2023-10-19T10:50:22;99054.50;;;21.81;76.06
72689;BME280;61053;52.166;4.506;2023-10-19T11:49:53;98989.94;;;19.54;79.22
72689;BME280;61053;52.166;4.506;2023-10-19T11:57:24;98990.63;;;19.03;81.19
72689;BME280;61053;52.166;4.506;2023-10-19T12:04:54;98986.47;;;18.93;83.11
72689;BME280;61053;52.166;4.506;2023-10-19T12:12:41;98985.78;;;18.51;86.38
72689;BME280;61053;52.166;4.506;2023-10-19T12:17:38;98975.34;;;18.35;86.75
72689;BME280;61053;52.166;4.506;2023-10-19T12:20:05;98982.59;;;18.21;89.45
72689;BME280;61053;52.166;4.506;2023-10-19T12:22:40;98984.88;;;18.18;90.98
72689;BME280;61053;52.166;4.506;2023-10-19T12:25:10;98981.75;;;18.21;90.54
72689;BME280;61053;52.166;4.506;2023-10-19T12:27:35;98978.41;;;18.05;90.83
72689;BME280;61053;52.166;4.506;2023-10-19T12:30:04;98974.88;;;18.11;90.92
72689;BME280;61053;52.166;4.506;2023-10-19T12:32:42;98970.06;;;18.00;90.25
72689;BME280;61053;52.166;4.506;2023-10-19T12:35:09;98968.38;;;17.92;91.16
72689;BME280;61053;52.166;4.506;2023-10-19T12:37:37;98961.94;;;17.93;91.15
72689;BME280;61053;52.166;4.506;2023-10-19T12:42:44;98960.66;;;17.48;97.07
72689;BME280;61053;52.166;4.506;2023-10-19T12:45:10;98962.38;;;17.62;97.68
72689;BME280;61053;52.166;4.506;2023-10-19T12:50:11;98949.47;;;17.51;99.17
72689;BME280;61053;52.166;4.506;2023-10-19T12:57:49;98937.84;;;17.50;98.05
72689;BME280;61053;52.166;4.506;2023-10-19T13:00:16;98940.94;;;17.47;97.92
72689;BME280;61053;52.166;4.506;2023-10-19T13:03:06;98953.06;;;17.30;99.19
72689;BME280;61053;52.166;4.506;2023-10-19T13:05:37;98957.69;;;17.36;99.75
72689;BME280;61053;52.166;4.506;2023-10-19T13:08:05;98958.09;;;17.33;100.00
72689;BME280;61053;52.166;4.506;2023-10-19T13:10:34;98937.84;;;17.50;99.90
72689;BME280;61053;52.166;4.506;2023-10-19T13:13:03;98947.19;;;17.55;99.25
72689;BME280;61053;52.166;4.506;2023-10-19T13:15:34;98940.97;;;17.54;97.72
72689;BME280;61053;52.166;4.506;2023-10-19T13:18:08;98942.41;;;17.50;97.32
72689;BME280;61053;52.166;4.506;2023-10-19T13:20:55;98948.56;;;17.37;98.71
72689;BME280;61053;52.166;4.506;2023-10-19T13:23:22;98950.88;;;17.40;98.80
72689;BME280;61053;52.166;4.506;2023-10-19T13:25:49;98948.44;;;17.52;98.13
72689;BME280;61053;52.166;4.506;2023-10-19T13:28:18;98936.59;;;17.53;97.47
72689;BME280;61053;52.166;4.506;2023-10-19T13:30:49;98939.84;;;17.42;97.13
72689;BME280;61053;52.166;4.506;2023-10-19T13:33:19;98945.56;;;17.54;97.49
72689;BME280;61053;52.166;4.506;2023-10-19T13:35:49;98945.94;;;17.50;99.06
72689;BME280;61053;52.166;4.506;2023-10-19T13:38:17;98932.53;;;17.29;98.42
72689;BME280;61053;52.166;4.506;2023-10-19T13:40:45;98929.09;;;17.14;99.01
72689;BME280;61053;52.166;4.506;2023-10-19T13:43:13;98922.06;;;17.13;100.00
72689;BME280;61053;52.166;4.506;2023-10-19T13:45:40;98922.25;;;17.11;100.00
72689;BME280;61053;52.166;4.506;2023-10-19T13:48:08;98916.09;;;16.89;100.00
72689;BME280;61053;52.166;4.506;2023-10-19T13:50:35;98914.75;;;17.06;100.00
72689;BME280;61053;52.166;4.506;2023-10-19T13:53:05;98905.41;;;17.02;100.00
72689;BME280;61053;52.166;4.506;2023-10-19T13:55:31;98910.63;;;17.11;100.00
72689;BME280;61053;52.166;4.506;2023-10-19T13:57:57;98903.41;;;17.18;100.00
72689;BME280;61053;52.166;4.506;2023-10-19T14:00:23;98901.19;;;17.28;99.95
72689;BME280;61053;52.166;4.506;2023-10-19T14:02:56;98900.78;;;17.31;99.56
72689;BME280;61053;52.166;4.506;2023-10-19T14:07:50;98903.97;;;17.06;100.00
72689;BME280;61053;52.166;4.506;2023-10-19T14:10:21;98904.22;;;17.12;100.00
72689;BME280;61053;52.166;4.506;2023-10-19T14:12:48;98902.44;;;16.97;100.00
72689;BME280;61053;52.166;4.506;2023-10-19T14:15:18;98887.25;;;16.90;100.00
72689;BME280;61053;52.166;4.506;2023-10-19T14:17:47;98878.44;;;16.74;100.00
72689;BME280;61053;52.166;4.506;2023-10-19T14:20:14;98874.69;;;16.47;100.00
72689;BME280;61053;52.166;4.506;2023-10-19T14:22:46;98873.63;;;16.70;100.00
72689;BME280;61053;52.166;4.506;2023-10-19T14:25:15;98865.84;;;16.32;100.00
72689;BME280;61053;52.166;4.506;2023-10-19T14:27:45;98860.19;;;16.27;100.00
72689;BME280;61053;52.166;4.506;2023-10-19T14:30:26;98859.56;;;16.46;100.00
72689;BME280;61053;52.166;4.506;2023-10-19T14:32:57;98861.22;;;16.47;100.00
72689;BME280;61053;52.166;4.506;2023-10-19T14:35:30;98854.25;;;16.59;100.00
72689;BME280;61053;52.166;4.506;2023-10-19T14:38:06;98847.25;;;16.37;100.00
72689;BME280;61053;52.166;4.506;2023-10-19T14:40:34;98842.69;;;16.37;100.00
72689;BME280;61053;52.166;4.506;2023-10-19T14:43:00;98839.00;;;16.45;100.00
72689;BME280;61053;52.166;4.506;2023-10-19T14:45:28;98852.28;;;16.18;100.00
72689;BME280;61053;52.166;4.506;2023-10-19T14:47:55;98846.09;;;16.24;100.00
72689;BME280;61053;52.166;4.506;2023-10-19T14:50:42;98835.84;;;16.35;100.00
72689;BME280;61053;52.166;4.506;2023-10-19T14:53:08;98832.38;;;16.19;100.00
72689;BME280;61053;52.166;4.506;2023-10-19T14:55:34;98820.00;;;16.25;100.00
72689;BME280;61053;52.166;4.506;2023-10-19T14:58:01;98802.16;;;16.52;100.00
72689;BME280;61053;52.166;4.506;2023-10-19T15:00:28;98805.22;;;16.42;100.00
72689;BME280;61053;52.166;4.506;2023-10-19T15:03:03;98800.47;;;16.44;100.00
72689;BME280;61053;52.166;4.506;2023-10-19T15:05:49;98790.75;;;16.50;100.00
72689;BME280;61053;52.166;4.506;2023-10-19T15:08:21;98791.44;;;16.59;100.00
72689;BME280;61053;52.166;4.506;2023-10-19T15:10:52;98804.78;;;16.39;100.00
72689;BME280;61053;52.166;4.506;2023-10-19T15:13:25;98818.44;;;16.65;100.00
72689;BME280;61053;52.166;4.506;2023-10-19T15:15:56;98817.63;;;16.37;100.00
72689;BME280;61053;52.166;4.506;2023-10-19T15:18:24;98826.72;;;16.64;100.00
72689;BME280;61053;52.166;4.506;2023-10-19T15:20:49;98828.13;;;16.60;100.00
72689;BME280;61053;52.166;4.506;2023-10-19T15:23:26;98830.03;;;16.66;100.00
72689;BME280;61053;52.166;4.506;2023-10-19T15:25:51;98823.34;;;16.55;100.00
72689;BME280;61053;52.166;4.506;2023-10-19T15:28:28;98824.56;;;16.53;100.00
72689;BME280;61053;52.166;4.506;2023-10-19T15:31:20;98822.78;;;16.38;100.00
72689;BME280;61053;52.166;4.506;2023-10-19T15:33:56;98815.28;;;16.34;100.00
72689;BME280;61053;52.166;4.506;2023-10-19T15:40:00;98816.91;;;16.28;100.00
72689;BME280;61053;52.166;4.506;2023-10-19T15:42:25;98808.31;;;16.39;100.00
72689;BME280;61053;52.166;4.506;2023-10-19T15:44:51;98812.22;;;16.37;100.00
72689;BME280;61053;52.166;4.506;2023-10-19T15:47:17;98806.78;;;16.30;100.00
72689;BME280;61053;52.166;4.506;2023-10-19T15:52:22;98804.22;;;16.22;100.00
72689;BME280;61053;52.166;4.506;2023-10-19T15:54:50;98805.97;;;16.30;100.00
72689;BME280;61053;52.166;4.506;2023-10-19T15:57:16;98811.53;;;16.56;100.00
72689;BME280;61053;52.166;4.506;2023-10-19T15:59:43;98815.50;;;16.60;100.00
72689;BME280;61053;52.166;4.506;2023-10-19T16:02:15;98811.81;;;16.68;100.00
72689;BME280;61053;52.166;4.506;2023-10-19T16:04:44;98816.81;;;16.43;100.00
72689;BME280;61053;52.166;4.506;2023-10-19T16:07:18;98826.41;;;16.52;100.00
72689;BME280;61053;52.166;4.506;2023-10-19T16:09:53;98827.16;;;16.39;100.00
72689;BME280;61053;52.166;4.506;2023-10-19T16:12:19;98824.31;;;16.48;100.00
72689;BME280;61053;52.166;4.506;2023-10-19T16:14:45;98836.81;;;16.55;100.00
72689;BME280;61053;52.166;4.506;2023-10-19T16:17:19;98831.22;;;16.57;100.00
72689;BME280;61053;52.166;4.506;2023-10-19T16:19:45;98835.31;;;16.46;100.00
72689;BME280;61053;52.166;4.506;2023-10-19T16:27:32;98826.72;;;16.64;100.00
72689;BME280;61053;52.166;4.506;2023-10-19T16:30:05;98823.84;;;16.37;100.00
72689;BME280;61053;52.166;4.506;2023-10-19T16:32:37;98824.78;;;16.51;100.00
72689;BME280;61053;52.166;4.506;2023-10-19T16:35:09;98822.59;;;16.12;100.00
72689;BME280;61053;52.166;4.506;2023-10-19T16:37:50;98826.13;;;16.40;100.00
72689;BME280;61053;52.166;4.506;2023-10-19T16:45:26;98831.13;;;16.43;100.00
72689;BME280;61053;52.166;4.506;2023-10-19T16:47:52;98822.31;;;16.28;100.00
72689;BME280;61053;52.166;4.506;2023-10-19T16:50:18;98827.41;;;16.44;100.00
72689;BME280;61053;52.166;4.506;2023-10-19T16:52:45;98822.66;;;16.46;100.00
72689;BME280;61053;52.166;4.506;2023-10-19T16:55:13;98823.97;;;16.29;100.00
72689;BME280;61053;52.166;4.506;2023-10-19T16:57:39;98831.72;;;16.17;100.00
72689;BME280;61053;52.166;4.506;2023-10-19T17:00:06;98825.44;;;16.32;100.00
72689;BME280;61053;52.166;4.506;2023-10-19T17:02:32;98821.91;;;16.31;100.00
72689;BME280;61053;52.166;4.506;2023-10-19T17:04:58;98829.50;;;16.21;100.00
72689;BME280;61053;52.166;4.506;2023-10-19T17:07:25;98825.28;;;16.12;100.00
72689;BME280;61053;52.166;4.506;2023-10-19T17:09:50;98821.19;;;16.16;100.00
72689;BME280;61053;52.166;4.506;2023-10-19T17:12:16;98822.66;;;15.97;100.00
72689;BME280;61053;52.166;4.506;2023-10-19T17:14:43;98830.13;;;16.23;100.00
72689;BME280;61053;52.166;4.506;2023-10-19T17:17:08;98835.88;;;16.13;100.00
72689;BME280;61053;52.166;4.506;2023-10-19T17:19:37;98829.69;;;16.19;100.00
72689;BME280;61053;52.166;4.506;2023-10-19T17:22:07;98833.03;;;16.00;100.00
72689;BME280;61053;52.166;4.506;2023-10-19T17:24:34;98821.94;;;16.10;100.00
72689;BME280;61053;52.166;4.506;2023-10-19T17:27:00;98836.63;;;15.86;100.00
72689;BME280;61053;52.166;4.506;2023-10-19T17:29:25;98830.53;;;15.98;100.00
72689;BME280;61053;52.166;4.506;2023-10-19T17:31:51;98827.50;;;16.08;100.00
72689;BME280;61053;52.166;4.506;2023-10-19T17:34:16;98834.84;;;15.93;100.00
72689;BME280;61053;52.166;4.506;2023-10-19T17:36:43;98824.78;;;16.01;100.00